Time;durP1;ratioP1;P1;durP2;ratioP2;P2;SDS_P1;SDS_P2;PMS_P1;PMS_P2;Temp;Humidity;BMP_temperature;BMP_pressure;BME280_temperature;BME280_humidity;BME280_pressure;Samples;Min_cycle;Max_cycle;Signal;HPM_P1;HPM_P2
2023/05/05 00:01:10;;;;;;;8.93;5.32;;;9.80;99.90;;;;;;5057540;28;20032;-60
2023/05/05 00:03:36;;;;;;;7.43;5.03;;;9.70;99.90;;;;;;5060220;28;20029;-60
2023/05/05 00:06:03;;;;;;;5.65;5.15;;;9.70;99.90;;;;;;5058441;28;20523;-59
2023/05/05 00:08:28;;;;;;;9.00;6.85;;;9.70;99.90;;;;;;5059145;28;20036;-59
2023/05/05 00:10:55;;;;;;;7.22;5.00;;;9.60;99.90;;;;;;5055410;28;20029;-59
2023/05/05 00:13:21;;;;;;;7.28;5.47;;;9.40;99.90;;;;;;5056553;28;20044;-59
2023/05/05 00:15:49;;;;;;;5.97;5.47;;;9.20;99.90;;;;;;5065378;28;20075;-61
2023/05/05 00:18:16;;;;;;;7.15;5.63;;;9.10;99.90;;;;;;5062196;28;20043;-59
2023/05/05 00:20:46;;;;;;;10.48;5.45;;;8.90;99.90;;;;;;5057959;28;20032;-59
2023/05/05 00:23:12;;;;;;;8.77;6.55;;;8.90;99.90;;;;;;5062406;28;20040;-59
2023/05/05 00:25:38;;;;;;;6.63;6.03;;;9.00;99.90;;;;;;5058956;28;20110;-58
2023/05/05 00:28:04;;;;;;;6.35;5.75;;;8.90;99.90;;;;;;5059711;28;20123;-58
2023/05/05 00:30:29;;;;;;;9.63;6.38;;;8.90;99.90;;;;;;5061117;28;20114;-58
2023/05/05 00:32:56;;;;;;;6.20;5.60;;;8.70;99.90;;;;;;5059418;28;20492;-58
2023/05/05 00:35:21;;;;;;;7.00;6.15;;;8.70;99.90;;;;;;5055132;28;20155;-61
2023/05/05 00:37:48;;;;;;;8.70;5.72;;;8.60;99.90;;;;;;5058186;28;20103;-59
2023/05/05 00:40:13;;;;;;;6.35;5.70;;;8.60;99.90;;;;;;5059697;28;20020;-58
2023/05/05 00:42:43;;;;;;;7.63;5.55;;;8.60;99.90;;;;;;5059835;28;20044;-60
2023/05/05 00:45:13;;;;;;;6.40;5.57;;;8.60;99.90;;;;;;5060061;28;20021;-59
2023/05/05 00:47:42;;;;;;;7.10;6.40;;;8.60;99.90;;;;;;5057966;28;20025;-60
2023/05/05 00:50:08;;;;;;;7.75;5.95;;;8.60;99.90;;;;;;5059797;28;20193;-61
2023/05/05 00:52:37;;;;;;;6.53;6.03;;;8.50;99.90;;;;;;5059190;28;20028;-60
2023/05/05 00:55:07;;;;;;;8.35;6.35;;;8.40;99.90;;;;;;5059050;28;20040;-59
2023/05/05 00:57:34;;;;;;;6.40;5.80;;;8.30;99.90;;;;;;5060955;28;20166;-60
2023/05/05 01:00:01;;;;;;;7.88;6.55;;;8.20;99.90;;;;;;5058828;28;20060;-61
2023/05/05 01:02:27;;;;;;;9.18;7.00;;;8.20;99.90;;;;;;5060712;28;20175;-57
2023/05/05 01:04:54;;;;;;;9.88;7.13;;;8.20;99.90;;;;;;5055486;28;20112;-57
2023/05/05 01:07:37;;;;;;;10.98;6.75;;;8.20;99.90;;;;;;5058346;28;20431;-61
2023/05/05 01:10:26;;;;;;;7.25;6.65;;;8.20;99.90;;;;;;5056983;28;20063;-60
2023/05/05 01:13:06;;;;;;;7.80;7.07;;;8.20;99.90;;;;;;5056633;28;20531;-59
2023/05/05 01:15:42;;;;;;;8.90;6.80;;;8.20;99.90;;;;;;5056473;28;20043;-60
2023/05/05 01:18:29;;;;;;;27.15;7.18;;;8.20;99.90;;;;;;5061194;28;20044;-60
2023/05/05 01:21:14;;;;;;;9.25;6.45;;;8.10;99.90;;;;;;5059750;28;20033;-60
2023/05/05 01:23:59;;;;;;;8.48;6.75;;;8.10;99.90;;;;;;5059085;28;20133;-59
2023/05/05 01:27:03;;;;;;;8.40;7.53;;;8.10;99.90;;;;;;5057860;28;20527;-60
2023/05/05 01:29:53;;;;;;;8.65;7.82;;;8.00;99.90;;;;;;5059523;28;20123;-59
2023/05/05 01:32:25;;;;;;;8.68;6.85;;;8.00;99.90;;;;;;5060972;28;20082;-59
2023/05/05 01:35:06;;;;;;;7.72;6.50;;;7.90;99.90;;;;;;5056722;28;20056;-59
2023/05/05 01:37:40;;;;;;;6.88;6.28;;;7.80;99.90;;;;;;5055248;28;20071;-60
2023/05/05 01:40:09;;;;;;;7.93;6.28;;;7.70;99.90;;;;;;5060583;28;20079;-58
2023/05/05 01:42:38;;;;;;;8.30;5.60;;;7.60;99.90;;;;;;5057850;28;20098;-59
2023/05/05 01:45:07;;;;;;;9.93;6.90;;;7.40;99.90;;;;;;5059098;28;20033;-59
2023/05/05 01:47:32;;;;;;;8.95;6.72;;;7.30;99.90;;;;;;5056740;28;20036;-60
2023/05/05 01:50:00;;;;;;;7.28;6.57;;;7.20;99.90;;;;;;5057175;28;20031;-59
2023/05/05 01:52:26;;;;;;;7.22;6.53;;;7.20;99.90;;;;;;5057844;28;20029;-58
2023/05/05 01:54:53;;;;;;;10.52;7.25;;;7.10;99.90;;;;;;5058234;28;20102;-59
2023/05/05 01:57:20;;;;;;;8.73;7.45;;;7.10;99.90;;;;;;5054682;28;20452;-58
2023/05/05 01:59:46;;;;;;;7.85;7.15;;;7.00;99.90;;;;;;5058964;28;20087;-59
2023/05/05 02:02:13;;;;;;;11.60;8.55;;;7.00;99.90;;;;;;5056821;28;20027;-59
2023/05/05 02:04:42;;;;;;;8.60;7.70;;;7.00;99.90;;;;;;5054578;28;20039;-59
2023/05/05 02:07:11;;;;;;;15.00;7.88;;;7.00;99.90;;;;;;5056150;28;20605;-59
2023/05/05 02:09:37;;;;;;;8.25;6.80;;;7.00;99.90;;;;;;5059062;28;20032;-59
2023/05/05 02:12:04;;;;;;;7.70;6.90;;;6.90;99.90;;;;;;5060451;28;20119;-60
2023/05/05 02:14:30;;;;;;;8.85;7.95;;;6.90;99.90;;;;;;5054604;28;20033;-59
2023/05/05 02:16:57;;;;;;;9.48;7.45;;;6.90;99.90;;;;;;5057809;28;20031;-59
2023/05/05 02:19:36;;;;;;;8.68;7.50;;;6.90;99.90;;;;;;5059041;28;20023;-59
2023/05/05 02:22:02;;;;;;;11.30;8.15;;;6.90;99.90;;;;;;5053863;28;20036;-60
2023/05/05 02:24:28;;;;;;;9.07;7.53;;;6.90;99.90;;;;;;5059134;28;20032;-59
2023/05/05 02:26:55;;;;;;;8.85;8.05;;;6.90;99.90;;;;;;5056016;28;20062;-57
2023/05/05 02:29:29;;;;;;;12.35;7.22;;;6.90;99.90;;;;;;5056188;28;20113;-59
2023/05/05 02:32:04;;;;;;;12.25;8.85;;;6.90;99.90;;;;;;5055438;28;20106;-60
2023/05/05 02:34:37;;;;;;;8.57;7.53;;;7.00;99.90;;;;;;5057070;28;20648;-59
2023/05/05 02:37:08;;;;;;;11.07;7.75;;;7.00;99.90;;;;;;5055474;28;20031;-59
2023/05/05 02:39:42;;;;;;;8.70;7.60;;;7.00;99.90;;;;;;5056617;28;20559;-60
2023/05/05 02:42:10;;;;;;;9.70;8.80;;;7.00;99.90;;;;;;5053553;28;20025;-60
2023/05/05 02:44:38;;;;;;;8.80;8.00;;;6.90;99.90;;;;;;5060003;28;20036;-59
2023/05/05 02:47:03;;;;;;;8.35;7.57;;;7.00;99.90;;;;;;5054687;28;20590;-59
2023/05/05 02:49:29;;;;;;;8.38;7.57;;;6.90;99.90;;;;;;5052471;28;20144;-58
2023/05/05 02:51:56;;;;;;;10.95;8.15;;;6.90;99.90;;;;;;5058645;28;20443;-59
2023/05/05 02:54:22;;;;;;;8.45;7.65;;;6.90;99.90;;;;;;5057721;28;20142;-59
2023/05/05 02:56:50;;;;;;;7.63;6.97;;;6.90;99.90;;;;;;5055572;28;20060;-60
2023/05/05 02:59:47;;;;;;;10.70;7.93;;;6.90;99.90;;;;;;5056493;28;20418;-59
2023/05/05 03:02:13;;;;;;;8.25;7.45;;;6.90;99.90;;;;;;5057706;28;20029;-59
2023/05/05 03:04:44;;;;;;;8.68;7.20;;;6.90;99.90;;;;;;5056746;28;20029;-59
2023/05/05 03:07:37;;;;;;;8.77;7.50;;;7.00;99.90;;;;;;5052696;28;20085;-59
2023/05/05 03:10:08;;;;;;;8.98;7.85;;;7.00;99.90;;;;;;5056214;28;20513;-60
2023/05/05 03:12:44;;;;;;;8.43;7.63;;;7.00;99.90;;;;;;5056388;28;20029;-59
2023/05/05 03:15:11;;;;;;;8.40;6.93;;;7.00;99.90;;;;;;5056888;28;20559;-58
2023/05/05 03:17:39;;;;;;;8.75;6.68;;;6.90;99.90;;;;;;5056388;28;20048;-61
2023/05/05 03:20:06;;;;;;;7.57;6.85;;;6.90;99.90;;;;;;5054962;28;20040;-60
2023/05/05 03:22:36;;;;;;;8.73;6.70;;;6.80;99.90;;;;;;5056745;28;20033;-59
2023/05/05 03:25:01;;;;;;;7.93;7.10;;;6.70;99.90;;;;;;5055547;28;20033;-60
2023/05/05 03:27:27;;;;;;;11.18;8.05;;;6.60;99.90;;;;;;5055974;28;20033;-59
2023/05/05 03:29:53;;;;;;;8.65;7.85;;;6.60;99.90;;;;;;5057334;28;20040;-59
2023/05/05 03:32:19;;;;;;;8.20;7.45;;;6.50;99.90;;;;;;5052996;28;20041;-59
2023/05/05 03:34:44;;;;;;;8.88;6.85;;;6.50;99.90;;;;;;5055426;28;20056;-59
2023/05/05 03:37:10;;;;;;;8.77;7.90;;;6.40;99.90;;;;;;5061654;28;20048;-61
2023/05/05 03:39:36;;;;;;;9.63;7.50;;;6.40;99.90;;;;;;5055878;28;20024;-59
2023/05/05 03:42:01;;;;;;;9.20;7.03;;;6.30;99.90;;;;;;5057262;28;20033;-60
2023/05/05 03:44:27;;;;;;;12.57;7.28;;;6.20;99.90;;;;;;5059728;28;20029;-58
2023/05/05 03:46:52;;;;;;;8.90;8.02;;;6.20;99.90;;;;;;5055139;28;20047;-61
2023/05/05 03:49:18;;;;;;;9.93;7.43;;;6.30;99.90;;;;;;5064144;28;20064;-59
2023/05/05 03:51:44;;;;;;;11.68;7.63;;;6.30;99.90;;;;;;5044439;28;20032;-60
2023/05/05 03:54:10;;;;;;;9.02;7.45;;;6.30;99.90;;;;;;5041141;28;20030;-58
2023/05/05 03:56:35;;;;;;;7.95;7.18;;;6.30;99.90;;;;;;5040437;28;20028;-60
2023/05/05 03:59:01;;;;;;;12.30;8.40;;;6.30;99.90;;;;;;5034338;28;20487;-59
2023/05/05 04:01:28;;;;;;;9.27;7.47;;;6.30;99.90;;;;;;5039984;28;20142;-59
2023/05/05 04:03:55;;;;;;;10.30;8.13;;;6.30;99.90;;;;;;5041038;28;20513;-59
2023/05/05 04:06:20;;;;;;;12.40;7.85;;;6.30;99.90;;;;;;5039124;28;20885;-60
2023/05/05 04:08:46;;;;;;;8.85;8.05;;;6.30;99.90;;;;;;5037951;28;20204;-59
2023/05/05 04:11:12;;;;;;;12.15;7.70;;;6.20;99.90;;;;;;5038236;28;20079;-58
2023/05/05 04:13:38;;;;;;;8.75;7.65;;;6.20;99.90;;;;;;5041620;28;20025;-60
2023/05/05 04:16:04;;;;;;;7.65;6.88;;;6.10;99.90;;;;;;5038596;28;20115;-60
2023/05/05 04:18:30;;;;;;;8.85;7.82;;;6.10;99.90;;;;;;5039404;28;20087;-61
2023/05/05 04:20:55;;;;;;;7.70;7.00;;;6.10;99.90;;;;;;5038655;28;20045;-59
2023/05/05 04:23:21;;;;;;;9.15;7.68;;;6.10;99.90;;;;;;5041258;28;20085;-58
2023/05/05 04:25:47;;;;;;;16.15;8.48;;;6.10;99.90;;;;;;5036895;28;20074;-60
2023/05/05 04:28:12;;;;;;;10.70;8.20;;;6.10;99.90;;;;;;5040180;28;20036;-59
2023/05/05 04:30:38;;;;;;;8.18;7.30;;;6.10;99.90;;;;;;5039319;28;20025;-58
2023/05/05 04:33:04;;;;;;;7.97;7.18;;;6.10;99.90;;;;;;5040609;28;20563;-61
2023/05/05 04:35:29;;;;;;;8.02;7.00;;;6.10;99.90;;;;;;5039118;28;20029;-59
2023/05/05 04:37:55;;;;;;;8.50;7.65;;;6.10;99.90;;;;;;5040490;28;20033;-60
2023/05/05 04:40:21;;;;;;;9.88;8.30;;;6.10;99.90;;;;;;5039793;28;20746;-61
2023/05/05 04:42:46;;;;;;;19.73;8.05;;;6.10;99.90;;;;;;5046389;28;20112;-60
2023/05/05 04:45:12;;;;;;;8.43;7.53;;;6.20;99.90;;;;;;5040343;28;20044;-58
2023/05/05 04:47:38;;;;;;;9.25;8.15;;;6.20;99.90;;;;;;5037567;28;20025;-59
2023/05/05 04:50:05;;;;;;;8.80;7.93;;;6.30;99.90;;;;;;5038731;28;20026;-59
2023/05/05 04:52:30;;;;;;;10.95;8.23;;;6.40;99.90;;;;;;5039831;28;20040;-58
2023/05/05 04:54:56;;;;;;;9.40;8.38;;;6.60;99.90;;;;;;5040539;28;20037;-60
2023/05/05 04:57:22;;;;;;;9.45;8.25;;;6.80;99.90;;;;;;5036496;28;20499;-56
2023/05/05 04:59:48;;;;;;;15.02;8.35;;;7.00;99.90;;;;;;5037969;28;20075;-60
2023/05/05 05:02:13;;;;;;;11.70;7.95;;;7.20;99.90;;;;;;5037970;28;20036;-61
2023/05/05 05:04:39;;;;;;;13.40;7.15;;;7.40;99.90;;;;;;5041005;28;20033;-59
2023/05/05 05:07:05;;;;;;;8.00;7.30;;;7.60;99.90;;;;;;5036899;28;20132;-59
2023/05/05 05:09:30;;;;;;;12.07;8.25;;;7.80;99.90;;;;;;5055665;28;20040;-59
2023/05/05 05:12:01;;;;;;;9.45;7.25;;;8.00;99.90;;;;;;5059458;28;20579;-56
2023/05/05 05:14:27;;;;;;;12.77;7.35;;;8.10;99.90;;;;;;5057988;28;20043;-58
2023/05/05 05:16:53;;;;;;;9.93;7.63;;;8.20;99.90;;;;;;5057543;28;20813;-59
2023/05/05 05:19:19;;;;;;;8.00;7.13;;;8.40;99.90;;;;;;5056891;28;20025;-60
2023/05/05 05:21:45;;;;;;;7.45;6.75;;;8.50;99.90;;;;;;5057578;28;20475;-59
2023/05/05 05:24:10;;;;;;;8.63;7.82;;;8.60;99.90;;;;;;5057852;28;20111;-61
2023/05/05 05:26:37;;;;;;;9.32;7.72;;;8.80;99.90;;;;;;5059955;28;20036;-60
2023/05/05 05:29:03;;;;;;;6.85;6.22;;;8.90;99.90;;;;;;5057190;28;20375;-60
2023/05/05 05:31:29;;;;;;;6.15;5.47;;;9.00;99.90;;;;;;5061459;28;20580;-59
2023/05/05 05:33:55;;;;;;;7.38;5.95;;;9.10;99.90;;;;;;5057195;28;20036;-59
2023/05/05 05:36:21;;;;;;;7.93;5.97;;;9.20;99.90;;;;;;5057114;28;20041;-59
2023/05/05 05:38:46;;;;;;;7.75;6.50;;;9.30;99.90;;;;;;5058602;28;20036;-61
2023/05/05 05:41:12;;;;;;;7.00;6.38;;;9.40;99.90;;;;;;5062276;28;20101;-59
2023/05/05 05:43:38;;;;;;;8.70;6.57;;;9.50;99.90;;;;;;5062469;28;20031;-60
2023/05/05 05:46:04;;;;;;;7.80;6.60;;;9.60;99.90;;;;;;5062129;28;20108;-61
2023/05/05 05:48:29;;;;;;;6.43;5.93;;;9.70;99.90;;;;;;5061388;28;20521;-61
2023/05/05 05:50:55;;;;;;;7.32;6.20;;;9.80;99.90;;;;;;5061933;28;20084;-59
2023/05/05 05:53:21;;;;;;;8.38;5.85;;;9.90;99.90;;;;;;5061563;28;20033;-62
2023/05/05 05:55:48;;;;;;;6.68;5.80;;;10.00;99.90;;;;;;5060428;28;20016;-60
2023/05/05 05:58:15;;;;;;;10.65;6.00;;;10.20;99.90;;;;;;5058785;28;20111;-62
2023/05/05 06:00:41;;;;;;;9.70;6.82;;;10.30;99.90;;;;;;5062284;28;20025;-59
2023/05/05 06:03:06;;;;;;;7.07;5.93;;;10.50;99.90;;;;;;5057502;28;20465;-58
2023/05/05 06:05:32;;;;;;;6.50;5.88;;;10.70;99.90;;;;;;5059631;28;20036;-60
2023/05/05 06:07:58;;;;;;;5.65;5.15;;;10.90;99.90;;;;;;5060838;28;20016;-61
2023/05/05 06:10:23;;;;;;;8.93;5.70;;;11.00;99.90;;;;;;5059281;28;20123;-59
2023/05/05 06:12:49;;;;;;;7.90;6.20;;;11.10;99.90;;;;;;5057358;28;21272;-60
2023/05/05 06:15:14;;;;;;;13.13;5.68;;;11.30;99.90;;;;;;5059927;28;20082;-60
2023/05/05 06:17:40;;;;;;;5.93;5.43;;;11.40;99.90;;;;;;5060513;28;20070;-62
2023/05/05 06:20:06;;;;;;;9.43;5.18;;;11.50;99.90;;;;;;5064134;28;20450;-60
2023/05/05 06:22:32;;;;;;;6.90;5.38;;;11.70;99.90;;;;;;5060696;28;20036;-60
2023/05/05 06:24:57;;;;;;;5.68;4.90;;;11.90;99.90;;;;;;5058568;28;20037;-60
2023/05/05 06:27:23;;;;;;;5.95;5.32;;;12.10;99.90;;;;;;5057089;28;20051;-58
2023/05/05 06:29:50;;;;;;;9.05;5.28;;;12.20;99.90;;;;;;5058647;28;20402;-59
2023/05/05 06:32:15;;;;;;;7.15;5.05;;;12.40;99.90;;;;;;5060488;27;20028;-60
2023/05/05 06:34:43;;;;;;;5.45;4.75;;;12.60;99.90;;;;;;5060139;28;20047;-59
2023/05/05 06:37:09;;;;;;;5.40;4.75;;;12.70;99.90;;;;;;5057188;28;20029;-61
2023/05/05 06:39:35;;;;;;;11.98;5.40;;;12.80;99.90;;;;;;5055963;28;20040;-61
2023/05/05 06:42:03;;;;;;;5.93;5.03;;;13.00;99.90;;;;;;5058093;28;20036;-59
2023/05/05 06:44:29;;;;;;;5.70;4.38;;;13.10;99.90;;;;;;5059532;28;20025;-59
2023/05/05 06:46:55;;;;;;;7.50;5.38;;;13.30;99.90;;;;;;5062780;28;20036;-61
2023/05/05 06:49:21;;;;;;;5.47;4.75;;;13.40;99.90;;;;;;5059363;28;20029;-59
2023/05/05 06:51:47;;;;;;;19.10;5.43;;;13.60;99.90;;;;;;5058035;28;20028;-62
2023/05/05 06:54:12;;;;;;;7.03;4.28;;;13.70;99.90;;;;;;5057478;28;20025;-60
2023/05/05 06:56:38;;;;;;;6.50;4.88;;;13.80;99.90;;;;;;5053759;28;20168;-62
2023/05/05 06:59:04;;;;;;;4.93;4.40;;;14.00;99.90;;;;;;5058002;28;20040;-60
2023/05/05 07:01:29;;;;;;;5.18;4.65;;;14.10;99.90;;;;;;5058325;28;20021;-60
2023/05/05 07:03:55;;;;;;;5.43;4.93;;;14.30;99.90;;;;;;5058812;28;20033;-58
2023/05/05 07:06:21;;;;;;;5.32;4.55;;;14.40;99.40;;;;;;5056237;28;20025;-60
2023/05/05 07:08:47;;;;;;;5.45;4.97;;;14.50;99.60;;;;;;5055899;28;20056;-60
2023/05/05 07:11:12;;;;;;;5.28;3.90;;;14.60;99.90;;;;;;5058425;28;20052;-60
2023/05/05 07:13:38;;;;;;;6.90;4.53;;;14.80;98.90;;;;;;5059365;28;20419;-62
2023/05/05 07:16:04;;;;;;;5.43;4.57;;;15.00;97.60;;;;;;5058783;28;20565;-60
2023/05/05 07:18:29;;;;;;;4.53;3.85;;;15.10;97.30;;;;;;5060081;28;20115;-60
2023/05/05 07:20:55;;;;;;;8.68;5.13;;;15.20;95.30;;;;;;5058035;28;20281;-61
2023/05/05 07:23:21;;;;;;;4.72;4.25;;;15.40;99.00;;;;;;5062198;28;20108;-61
2023/05/05 07:25:46;;;;;;;5.40;4.30;;;15.50;95.90;;;;;;5063146;28;20403;-60
2023/05/05 07:28:12;;;;;;;5.07;3.42;;;15.60;96.20;;;;;;5060076;28;20079;-60
2023/05/05 07:30:38;;;;;;;5.00;4.10;;;15.70;93.90;;;;;;5059117;28;20098;-60
2023/05/05 07:33:03;;;;;;;6.40;3.58;;;15.70;91.90;;;;;;5059458;28;20025;-62
2023/05/05 07:35:29;;;;;;;4.60;3.65;;;15.80;92.00;;;;;;5060539;28;20037;-61
2023/05/05 07:37:55;;;;;;;4.47;4.05;;;15.90;93.30;;;;;;5061107;28;20021;-60
2023/05/05 07:40:20;;;;;;;6.85;3.67;;;15.90;92.20;;;;;;5059827;28;20029;-60
2023/05/05 07:42:46;;;;;;;6.18;3.75;;;16.10;93.20;;;;;;5063923;28;20037;-60
2023/05/05 07:45:12;;;;;;;5.20;3.95;;;16.10;92.00;;;;;;5062818;28;20033;-61
2023/05/05 07:47:37;;;;;;;4.00;3.60;;;16.30;93.60;;;;;;5063290;28;20025;-61
2023/05/05 07:50:04;;;;;;;4.57;3.88;;;16.40;90.10;;;;;;5060792;28;20040;-62
2023/05/05 07:52:29;;;;;;;4.95;3.88;;;16.40;88.70;;;;;;5060491;28;20071;-62
2023/05/05 07:54:55;;;;;;;7.15;3.97;;;16.50;88.00;;;;;;5061339;28;20036;-61
2023/05/05 07:57:21;;;;;;;6.10;3.83;;;16.60;90.80;;;;;;5061585;28;20513;-60
2023/05/05 07:59:46;;;;;;;4.43;4.03;;;16.70;92.40;;;;;;5061772;28;20039;-60
2023/05/05 08:02:12;;;;;;;4.63;3.72;;;16.80;89.80;;;;;;5061620;28;20354;-60
2023/05/05 08:04:42;;;;;;;5.72;4.00;;;16.90;91.30;;;;;;5060726;28;20082;-60
2023/05/05 08:07:08;;;;;;;4.38;3.70;;;17.00;88.50;;;;;;5056139;28;20459;-60
2023/05/05 08:09:34;;;;;;;6.90;4.20;;;17.10;87.80;;;;;;5059256;28;20033;-61
2023/05/05 08:12:01;;;;;;;6.47;3.83;;;17.20;84.10;;;;;;5061361;28;20031;-60
2023/05/05 08:14:27;;;;;;;5.45;3.72;;;17.20;90.90;;;;;;5062461;28;20029;-60
2023/05/05 08:16:53;;;;;;;4.40;3.92;;;17.30;89.90;;;;;;5060359;28;20409;-60
2023/05/05 08:19:19;;;;;;;5.90;3.83;;;17.50;88.90;;;;;;5060313;28;20031;-60
2023/05/05 08:21:44;;;;;;;9.13;4.55;;;17.60;86.60;;;;;;5058663;28;20413;-60
2023/05/05 08:24:10;;;;;;;7.03;4.22;;;17.70;86.70;;;;;;5059930;28;20025;-59
2023/05/05 08:26:35;;;;;;;5.30;4.30;;;17.80;85.40;;;;;;5059305;28;20057;-62
2023/05/05 08:29:01;;;;;;;7.13;3.80;;;17.80;82.40;;;;;;5058559;28;20052;-63
2023/05/05 08:31:28;;;;;;;4.32;3.92;;;17.90;86.30;;;;;;5057514;28;20058;-60
2023/05/05 08:33:54;;;;;;;7.00;4.32;;;18.00;81.90;;;;;;5056824;28;20032;-59
2023/05/05 08:36:19;;;;;;;6.35;4.05;;;18.00;82.40;;;;;;5059376;28;20386;-62
2023/05/05 08:38:46;;;;;;;4.60;4.18;;;18.20;81.40;;;;;;5059922;28;20165;-61
2023/05/05 08:41:16;;;;;;;6.10;4.07;;;18.40;90.20;;;;;;5060685;28;20493;-62
2023/05/05 08:43:43;;;;;;;8.32;4.13;;;18.50;83.70;;;;;;5060777;28;20021;-59
2023/05/05 08:46:13;;;;;;;7.72;4.30;;;18.60;82.40;;;;;;5060738;28;20475;-64
2023/05/05 08:48:41;;;;;;;3.90;3.50;;;18.70;79.50;;;;;;5060201;28;20097;-61
2023/05/05 08:51:12;;;;;;;6.63;4.38;;;18.80;80.40;;;;;;5061782;28;20500;-61
2023/05/05 08:53:53;;;;;;;6.25;4.38;;;18.90;87.50;;;;;;5061061;28;20036;-61
2023/05/05 08:56:25;;;;;;;5.45;4.25;;;18.90;87.80;;;;;;5057814;28;20032;-62
2023/05/05 08:58:51;;;;;;;8.82;4.15;;;19.10;83.00;;;;;;5057227;28;20029;-60
2023/05/05 09:01:17;;;;;;;4.60;4.10;;;19.20;87.30;;;;;;5058277;28;20024;-61
2023/05/05 09:03:44;;;;;;;4.10;3.63;;;19.30;78.80;;;;;;5058399;28;20063;-62
2023/05/05 09:06:10;;;;;;;4.90;4.05;;;19.50;80.90;;;;;;5061653;28;20052;-62
2023/05/05 09:08:37;;;;;;;6.15;4.60;;;19.80;82.70;;;;;;5058444;28;20029;-62
2023/05/05 09:11:03;;;;;;;4.43;4.00;;;20.40;79.40;;;;;;5056302;28;20031;-61
2023/05/05 09:13:31;;;;;;;7.63;3.70;;;21.10;75.70;;;;;;5060278;28;20513;-63
2023/05/05 09:15:58;;;;;;;5.40;3.75;;;21.90;71.50;;;;;;5058332;28;20033;-63
2023/05/05 09:18:24;;;;;;;5.13;4.32;;;22.70;73.70;;;;;;5057466;28;20084;-63
2023/05/05 09:20:50;;;;;;;4.85;4.30;;;23.20;69.10;;;;;;5057738;28;20473;-62
2023/05/05 09:23:18;;;;;;;8.68;4.47;;;23.70;64.70;;;;;;5059230;28;20032;-61
2023/05/05 09:25:46;;;;;;;4.13;3.60;;;24.30;62.60;;;;;;5056291;28;20039;-61
2023/05/05 09:28:16;;;;;;;5.35;3.60;;;24.90;61.40;;;;;;5057707;28;20029;-62
2023/05/05 09:30:45;;;;;;;5.72;3.97;;;24.90;61.70;;;;;;5056028;28;20515;-61
2023/05/05 09:33:12;;;;;;;5.55;4.13;;;25.20;59.10;;;;;;5056018;28;20013;-63
2023/05/05 09:35:54;;;;;;;5.43;4.10;;;25.50;58.60;;;;;;5057180;28;20432;-64
2023/05/05 09:38:22;;;;;;;5.82;3.85;;;25.50;56.90;;;;;;5056961;28;20074;-61
2023/05/05 09:40:52;;;;;;;4.40;4.00;;;25.70;56.70;;;;;;5057832;28;20021;-62
2023/05/05 09:43:20;;;;;;;4.37;3.57;;;26.20;57.30;;;;;;5073047;28;20024;-62
2023/05/05 09:45:47;;;;;;;4.00;3.60;;;26.50;55.20;;;;;;5056224;28;20063;-61
2023/05/05 09:48:27;;;;;;;5.78;3.63;;;26.00;54.30;;;;;;5058325;28;20016;-61
2023/05/05 09:50:54;;;;;;;7.03;4.05;;;25.70;56.00;;;;;;5060387;28;20033;-62
2023/05/05 09:53:20;;;;;;;4.78;4.28;;;25.90;56.80;;;;;;5057727;28;20039;-62
2023/05/05 09:55:59;;;;;;;4.95;3.78;;;26.50;55.40;;;;;;5056925;28;20033;-61
2023/05/05 09:58:29;;;;;;;4.38;3.40;;;26.40;54.20;;;;;;5058075;28;20025;-62
2023/05/05 10:00:56;;;;;;;6.65;3.00;;;26.20;55.20;;;;;;5057094;28;20033;-62
2023/05/05 10:03:23;;;;;;;7.72;3.25;;;26.50;54.80;;;;;;5057531;28;20040;-62
2023/05/05 10:05:49;;;;;;;5.63;2.97;;;26.40;54.10;;;;;;5056000;28;20036;-63
2023/05/05 10:08:16;;;;;;;6.85;4.00;;;26.50;55.60;;;;;;5058567;28;20029;-60
2023/05/05 10:11:05;;;;;;;4.32;3.40;;;26.70;52.80;;;;;;5057963;28;20032;-62
2023/05/05 10:13:35;;;;;;;8.20;3.50;;;26.70;53.50;;;;;;5058521;28;20029;-61
2023/05/05 10:16:02;;;;;;;3.53;3.22;;;26.80;54.60;;;;;;5058513;28;20126;-61
2023/05/05 10:18:31;;;;;;;7.72;3.75;;;26.60;54.90;;;;;;5055459;28;20121;-62
2023/05/05 10:20:57;;;;;;;5.88;4.20;;;26.50;52.10;;;;;;5057624;28;20039;-62
2023/05/05 10:23:26;;;;;;;7.22;3.42;;;26.10;57.30;;;;;;5057055;28;20037;-61
2023/05/05 10:26:04;;;;;;;5.20;3.72;;;26.00;52.60;;;;;;5057692;28;20016;-61
2023/05/05 10:28:50;;;;;;;4.43;3.25;;;26.10;55.20;;;;;;5059333;28;20040;-61
2023/05/05 10:31:19;;;;;;;4.43;3.55;;;25.90;59.00;;;;;;5060799;28;20045;-60
2023/05/05 10:34:01;;;;;;;6.32;3.45;;;26.00;59.70;;;;;;5056286;28;20028;-61
2023/05/05 10:36:28;;;;;;;4.38;2.88;;;26.20;56.90;;;;;;5056840;28;20050;-61
2023/05/05 10:38:58;;;;;;;4.30;3.13;;;26.40;58.60;;;;;;5055197;28;20029;-60
2023/05/05 10:41:25;;;;;;;15.23;3.40;;;26.60;55.70;;;;;;5055836;28;20057;-61
2023/05/05 10:43:55;;;;;;;4.20;2.92;;;26.80;54.20;;;;;;5056452;28;20587;-60
2023/05/05 10:46:21;;;;;;;5.43;3.58;;;27.10;56.30;;;;;;5064190;28;20679;-61
2023/05/05 10:49:03;;;;;;;5.35;3.60;;;27.00;55.70;;;;;;5055105;28;20029;-61
2023/05/05 10:51:54;;;;;;;4.65;2.85;;;26.50;56.20;;;;;;5055889;28;20041;-62
2023/05/05 10:54:30;;;;;;;6.13;4.13;;;26.20;61.20;;;;;;5056930;28;20043;-61
2023/05/05 10:56:56;;;;;;;6.25;4.57;;;25.90;55.80;;;;;;5055905;28;20439;-60
2023/05/05 10:59:41;;;;;;;6.50;4.45;;;25.80;57.60;;;;;;5060257;28;20029;-60
2023/05/05 11:02:29;;;;;;;4.15;3.33;;;25.40;59.00;;;;;;5061442;28;20120;-61
2023/05/05 11:05:20;;;;;;;4.95;4.07;;;25.40;61.10;;;;;;5060927;28;20829;-59
2023/05/05 11:07:48;;;;;;;;;;;25.40;58.60;;;;;;5063084;28;20048;-61
2023/05/05 11:10:14;;;;;;;5.47;3.83;;;25.50;65.60;;;;;;5059382;28;20585;-61
2023/05/05 11:13:03;;;;;;;6.85;4.00;;;25.60;59.90;;;;;;5065262;28;20044;-60
2023/05/05 11:15:29;;;;;;;6.50;3.85;;;25.50;62.20;;;;;;5061886;28;20413;-60
2023/05/05 11:17:55;;;;;;;4.15;3.75;;;25.60;58.70;;;;;;5061423;28;20036;-60
2023/05/05 11:20:42;;;;;;;4.57;3.67;;;25.60;61.40;;;;;;5059202;28;20042;-60
2023/05/05 11:23:07;;;;;;;7.18;4.47;;;25.50;59.40;;;;;;5055929;28;20606;-63
2023/05/05 11:25:37;;;;;;;5.18;3.88;;;25.50;57.90;;;;;;5062085;28;20029;-60
2023/05/05 11:28:17;;;;;;;9.43;4.10;;;25.50;62.40;;;;;;5063888;28;20576;-60
2023/05/05 11:30:55;;;;;;;7.45;4.43;;;25.30;61.90;;;;;;5062154;28;20131;-60
2023/05/05 11:33:27;;;;;;;4.65;4.25;;;25.40;57.20;;;;;;5062645;28;20401;-60
2023/05/05 11:35:57;;;;;;;4.47;3.83;;;25.50;58.90;;;;;;5056755;28;20127;-61
2023/05/05 11:38:32;;;;;;;4.85;4.28;;;25.70;56.70;;;;;;5059726;28;20040;-61
2023/05/05 11:41:11;;;;;;;4.93;4.53;;;26.00;56.90;;;;;;5059858;28;20039;-61
2023/05/05 11:43:37;;;;;;;5.30;4.80;;;26.00;56.00;;;;;;5060728;28;20365;-62
2023/05/05 11:46:13;;;;;;;4.57;4.18;;;26.00;53.80;;;;;;5059309;28;20043;-62
2023/05/05 11:48:48;;;;;;;5.97;4.35;;;26.10;54.90;;;;;;5060373;28;20841;-61
2023/05/05 11:51:15;;;;;;;7.53;4.05;;;25.90;56.40;;;;;;5058145;28;20440;-62
2023/05/05 11:53:42;;;;;;;4.93;4.50;;;25.60;56.90;;;;;;5057933;28;20511;-63
2023/05/05 11:56:10;;;;;;;5.32;4.00;;;25.40;54.30;;;;;;5061054;28;20029;-60
2023/05/05 11:58:36;;;;;;;11.73;4.30;;;25.20;58.10;;;;;;5061839;28;20025;-63
2023/05/05 12:01:08;;;;;;;6.25;4.38;;;25.10;60.60;;;;;;5062622;28;20163;-63
2023/05/05 12:03:37;;;;;;;9.25;3.65;;;25.00;61.30;;;;;;5058725;28;20497;-63
2023/05/05 12:06:07;;;;;;;5.82;3.33;;;25.10;63.40;;;;;;5059628;28;20032;-62
2023/05/05 12:08:36;;;;;;;5.80;3.50;;;25.10;57.00;;;;;;5060323;28;20052;-62
2023/05/05 12:11:07;;;;;;;5.95;3.90;;;25.10;57.90;;;;;;5062015;28;20029;-62
2023/05/05 12:13:34;;;;;;;6.15;3.67;;;25.40;57.20;;;;;;5056536;28;20436;-62
2023/05/05 12:16:13;;;;;;;4.30;3.55;;;25.70;57.00;;;;;;5058901;28;20021;-61
2023/05/05 12:18:40;;;;;;;3.97;3.40;;;25.90;53.70;;;;;;5042688;28;20039;-61
2023/05/05 12:21:13;;;;;;;5.38;3.33;;;26.20;54.40;;;;;;5057907;28;20033;-62
2023/05/05 12:23:39;;;;;;;5.00;3.40;;;26.50;54.90;;;;;;5060042;28;20027;-62
2023/05/05 12:26:05;;;;;;;3.63;3.33;;;26.70;54.40;;;;;;5057930;28;20021;-62
2023/05/05 12:28:45;;;;;;;4.70;4.30;;;26.80;53.30;;;;;;5059718;28;20056;-62
2023/05/05 12:31:10;;;;;;;6.60;3.53;;;26.70;53.00;;;;;;5058620;28;20726;-62
2023/05/05 12:33:40;;;;;;;4.93;4.20;;;26.50;54.20;;;;;;5059876;28;20021;-61
2023/05/05 12:36:09;;;;;;;4.95;4.45;;;26.40;54.00;;;;;;5057866;28;20033;-61
2023/05/05 12:38:35;;;;;;;4.25;3.55;;;26.40;53.70;;;;;;5060173;28;20048;-62
2023/05/05 12:41:01;;;;;;;4.72;4.22;;;26.50;57.30;;;;;;5057298;28;20029;-61
2023/05/05 12:43:28;;;;;;;4.65;4.15;;;26.20;53.20;;;;;;5061569;28;20051;-63
2023/05/05 12:46:04;;;;;;;7.53;4.15;;;25.90;56.50;;;;;;5058598;28;20036;-60
2023/05/05 12:48:30;;;;;;;3.92;3.50;;;25.90;56.80;;;;;;5057922;28;20029;-61
2023/05/05 12:51:21;;;;;;;7.78;3.60;;;25.80;57.40;;;;;;5059193;28;20404;-60
2023/05/05 12:54:00;;;;;;;3.72;3.42;;;25.90;59.30;;;;;;5062167;28;20500;-62
2023/05/05 12:56:33;;;;;;;4.13;3.55;;;26.00;57.60;;;;;;5059357;28;20146;-60
2023/05/05 12:59:03;;;;;;;7.18;3.30;;;26.10;56.10;;;;;;5060638;28;20033;-60